createdAt,value
2022-10-14T00:01:20.814Z,10.91
2022-10-14T00:03:48.534Z,10.90
2022-10-14T00:06:19.325Z,10.91
2022-10-14T00:08:47.538Z,10.91
2022-10-14T00:11:23.843Z,10.91
2022-10-14T00:13:53.353Z,10.90
2022-10-14T00:16:23.852Z,10.90
2022-10-14T00:18:50.888Z,10.88
2022-10-14T00:21:18.023Z,10.85
2022-10-14T00:23:45.710Z,10.86
2022-10-14T00:26:17.694Z,10.86
2022-10-14T00:28:44.209Z,10.83
2022-10-14T00:31:10.747Z,10.82
2022-10-14T00:33:37.262Z,10.83
2022-10-14T00:36:05.616Z,10.82
2022-10-14T00:38:32.446Z,10.79
2022-10-14T00:40:59.027Z,10.78
2022-10-14T00:43:27.072Z,10.77
2022-10-14T00:45:53.972Z,10.74
2022-10-14T00:48:24.958Z,10.73
2022-10-14T00:50:54.856Z,10.74
2022-10-14T00:53:21.786Z,10.71
2022-10-14T00:55:48.780Z,10.70
2022-10-14T00:58:15.669Z,10.68
2022-10-14T01:00:42.323Z,10.66
2022-10-14T01:03:10.411Z,10.66
2022-10-14T01:05:47.834Z,10.64
2022-10-14T01:08:27.562Z,10.63
2022-10-14T01:11:05.734Z,10.61
2022-10-14T01:13:35.400Z,10.59
2022-10-14T01:16:15.552Z,10.59
2022-10-14T01:18:58.731Z,10.63
2022-10-14T01:21:37.627Z,10.61
2022-10-14T01:24:34.976Z,10.60
2022-10-14T01:27:26.487Z,10.59
2022-10-14T01:30:09.975Z,10.63
2022-10-14T01:32:46.525Z,10.63
2022-10-14T01:35:31.080Z,10.62
2022-10-14T01:38:06.989Z,10.59
2022-10-14T01:44:29.261Z,10.58
2022-10-14T01:47:30.133Z,10.59
2022-10-14T01:50:02.063Z,10.57
2022-10-14T02:06:36.611Z,10.59
2022-10-14T02:09:26.627Z,10.62
2022-10-14T02:13:03.224Z,10.64
2022-10-14T02:21:59.092Z,10.66
2022-10-14T02:22:07.702Z,10.68
2022-10-14T02:27:53.835Z,10.74
2022-10-14T02:48:18.077Z,10.77
2022-10-14T02:50:44.922Z,10.80
2022-10-14T02:53:16.177Z,10.80
2022-10-14T03:00:06.655Z,10.88
2022-10-14T03:09:51.116Z,10.90
2022-10-14T03:16:03.014Z,10.94
2022-10-14T03:22:22.963Z,10.99
2022-10-14T03:24:49.799Z,10.99
2022-10-14T03:56:47.667Z,11.12
2022-10-14T04:00:00.250Z,11.14
2022-10-14T04:05:47.948Z,11.16
2022-10-14T04:10:59.348Z,11.19
2022-10-14T04:13:29.135Z,11.20
2022-10-14T04:15:55.704Z,11.23
2022-10-14T04:18:22.294Z,11.25
2022-10-14T04:20:51.195Z,11.26
2022-10-14T04:23:17.780Z,11.28
2022-10-14T04:26:16.687Z,11.29
2022-10-14T04:29:10.094Z,11.30
2022-10-14T04:32:02.262Z,11.32
2022-10-14T04:38:19.760Z,11.34
2022-10-14T04:41:22.527Z,11.35
2022-10-14T04:43:49.338Z,11.38
2022-10-14T04:47:07.748Z,11.38
2022-10-14T04:49:47.365Z,11.40
2022-10-14T05:01:55.386Z,11.45
2022-10-14T05:04:22.235Z,11.45
2022-10-14T05:09:54.215Z,11.47
2022-10-14T05:16:14.188Z,11.52
2022-10-14T05:22:37.543Z,11.56
2022-10-14T05:26:32.710Z,11.56
2022-10-14T05:28:26.836Z,11.58
2022-10-14T05:31:21.913Z,11.59
2022-10-14T05:33:48.622Z,11.61
2022-10-14T05:39:25.006Z,11.62
2022-10-14T05:44:35.543Z,11.64
2022-10-14T05:47:02.093Z,11.65
2022-10-14T05:49:28.762Z,11.64
2022-10-14T05:52:19.375Z,11.66
2022-10-14T05:54:45.473Z,11.67
2022-10-14T05:57:12.173Z,11.69
2022-10-14T05:59:38.782Z,11.70
2022-10-14T06:02:09.955Z,11.72
2022-10-14T06:04:39.852Z,11.72
2022-10-14T06:07:06.988Z,11.74
2022-10-14T06:09:33.519Z,11.76
2022-10-14T06:12:00.784Z,11.79
2022-10-14T06:14:27.361Z,11.82
2022-10-14T06:16:53.898Z,11.84
2022-10-14T06:19:20.509Z,11.87
2022-10-14T06:21:47.077Z,11.88
2022-10-14T06:24:13.913Z,11.88
2022-10-14T06:26:40.634Z,11.92
2022-10-14T06:29:11.097Z,11.94
2022-10-14T06:31:55.806Z,11.97
2022-10-14T06:34:23.877Z,12.00
2022-10-14T06:36:50.652Z,12.01
2022-10-14T06:39:17.217Z,12.02
2022-10-14T06:41:44.014Z,12.04
2022-10-14T06:44:10.614Z,12.05
2022-10-14T06:46:37.193Z,12.08
2022-10-14T06:49:03.649Z,12.08
2022-10-14T06:51:30.159Z,12.10
2022-10-14T06:53:56.686Z,12.11
2022-10-14T06:56:23.201Z,12.12
2022-10-14T06:58:53.923Z,12.15
2022-10-14T07:01:20.908Z,12.15
2022-10-14T07:03:47.484Z,12.15
2022-10-14T07:06:14.417Z,12.17
2022-10-14T07:08:41.101Z,12.19
2022-10-14T07:11:07.748Z,12.21
2022-10-14T08:17:13.270Z,12.71
2022-10-14T08:20:29.563Z,12.73
2022-10-14T08:22:58.968Z,12.75
2022-10-14T08:28:34.905Z,12.79
2022-10-14T08:31:28.677Z,12.80
2022-10-14T08:34:25.276Z,12.81
2022-10-14T08:39:54.527Z,12.85
2022-10-14T08:42:58.673Z,12.87
2022-10-14T08:45:35.712Z,12.90
2022-10-14T08:48:09.667Z,12.92
2022-10-14T08:50:44.708Z,12.95
2022-10-14T08:53:21.654Z,12.97
2022-10-14T08:55:53.038Z,12.99
2022-10-14T08:58:33.846Z,13.04
2022-10-14T09:01:13.409Z,13.08
2022-10-14T09:03:42.269Z,13.13
2022-10-14T09:06:24.408Z,13.16
2022-10-14T09:08:54.557Z,13.19
2022-10-14T09:11:23.097Z,13.23
2022-10-14T09:13:52.940Z,13.23
2022-10-14T09:16:22.162Z,13.27
2022-10-14T09:18:54.922Z,13.29
2022-10-14T09:21:40.321Z,13.31
2022-10-14T09:24:19.612Z,13.33
2022-10-14T09:26:50.254Z,13.37
2022-10-14T09:29:34.396Z,13.40
2022-10-14T09:32:07.184Z,13.43
2022-10-14T09:34:38.836Z,13.47
2022-10-14T09:37:24.316Z,13.52
2022-10-14T09:39:53.280Z,13.56
2022-10-14T09:42:26.246Z,13.57
2022-10-14T09:47:44.794Z,13.61
2022-10-14T09:50:22.323Z,13.66
2022-10-14T09:52:54.530Z,13.67
2022-10-14T09:55:24.363Z,13.69
2022-10-14T09:58:04.243Z,13.73
2022-10-14T10:00:32.494Z,13.74
2022-10-14T10:02:59.008Z,13.75
2022-10-14T10:05:25.573Z,13.77
2022-10-14T10:08:16.627Z,13.78
2022-10-14T10:11:03.804Z,13.79
2022-10-14T10:13:39.518Z,13.80
2022-10-14T10:16:18.383Z,13.82
2022-10-14T10:18:44.898Z,13.87
2022-10-14T10:21:20.999Z,13.88
2022-10-14T10:23:54.812Z,13.90
2022-10-14T10:26:32.295Z,13.95
2022-10-14T10:29:02.570Z,14.01
2022-10-14T10:31:49.283Z,14.02
2022-10-14T10:34:38.389Z,14.04
2022-10-14T10:37:26.614Z,14.06
2022-10-14T10:40:20.184Z,14.07
2022-10-14T10:43:01.521Z,14.08
2022-10-14T10:46:02.592Z,14.11
2022-10-14T10:48:50.318Z,14.14
2022-10-14T10:51:30.861Z,14.18
2022-10-14T10:54:06.895Z,14.20
2022-10-14T11:00:37.640Z,14.23
2022-10-14T11:03:14.729Z,14.22
2022-10-14T11:06:43.135Z,14.22
2022-10-14T11:09:59.769Z,14.22
2022-10-14T11:12:39.239Z,14.22
2022-10-14T11:15:22.069Z,14.23
2022-10-14T11:18:13.382Z,14.24
2022-10-14T11:20:57.190Z,14.24
2022-10-14T11:23:24.783Z,14.24
2022-10-14T11:25:53.369Z,14.25
2022-10-14T11:28:29.747Z,14.25
2022-10-14T11:31:25.293Z,14.25
2022-10-14T11:34:01.036Z,14.24
2022-10-14T11:36:36.294Z,14.25
2022-10-14T11:39:02.759Z,14.28
2022-10-14T11:41:30.226Z,14.30
2022-10-14T11:44:03.404Z,14.30
2022-10-14T11:46:36.451Z,14.31
2022-10-14T11:49:13.505Z,14.33
2022-10-14T11:51:52.069Z,14.34
2022-10-14T11:54:28.651Z,14.36
2022-10-14T11:57:27.754Z,14.39
2022-10-14T12:00:02.420Z,14.41
2022-10-14T12:02:45.132Z,14.42
2022-10-14T12:10:02.323Z,14.50
2022-10-14T12:12:50.564Z,14.52
2022-10-14T12:18:50.982Z,14.53
2022-10-14T12:21:35.425Z,14.57
2022-10-14T12:24:07.227Z,14.59
2022-10-14T12:26:40.116Z,14.62
2022-10-14T12:30:15.582Z,14.70
2022-10-14T12:36:03.039Z,14.74
2022-10-14T12:39:07.493Z,14.74
2022-10-14T12:45:36.043Z,14.73
2022-10-14T12:48:28.828Z,14.72
2022-10-14T12:51:11.233Z,14.70
2022-10-14T12:53:41.770Z,14.70
2022-10-14T12:56:29.725Z,14.68
2022-10-14T13:03:00.919Z,14.76
2022-10-14T13:11:28.325Z,14.80
2022-10-14T13:15:15.536Z,14.78
2022-10-14T13:17:42.043Z,14.78
2022-10-14T13:20:36.980Z,14.77
2022-10-14T13:23:21.705Z,14.75
2022-10-14T13:25:54.507Z,14.73
2022-10-14T13:28:41.978Z,14.73
2022-10-14T13:31:17.366Z,14.72
2022-10-14T13:33:52.459Z,14.69
2022-10-14T13:36:31.490Z,14.67
2022-10-14T13:39:00.691Z,14.67
2022-10-14T13:41:31.336Z,14.63
2022-10-14T13:44:06.254Z,14.63
2022-10-14T13:46:41.389Z,14.62
2022-10-14T13:52:20.892Z,14.63
2022-10-14T13:55:05.169Z,14.65
2022-10-14T13:58:00.160Z,14.66
2022-10-14T14:01:07.874Z,14.67
2022-10-14T14:03:36.977Z,14.69
2022-10-14T14:07:27.774Z,14.70
2022-10-14T14:10:01.002Z,14.67
2022-10-14T14:12:28.306Z,14.67
2022-10-14T14:14:58.061Z,14.69
2022-10-14T14:17:25.442Z,14.69
2022-10-14T14:19:52.766Z,14.74
2022-10-14T14:22:27.344Z,14.79
2022-10-14T14:25:33.447Z,14.80
2022-10-14T14:35:19.352Z,14.77
2022-10-14T14:37:56.147Z,14.79
2022-10-14T14:48:09.971Z,14.87
2022-10-14T14:51:47.078Z,14.88
2022-10-14T14:54:45.299Z,14.91
2022-10-14T15:11:33.276Z,14.88
2022-10-14T15:14:31.899Z,14.87
2022-10-14T15:33:36.619Z,14.88
2022-10-14T15:34:47.960Z,14.88
2022-10-14T15:38:32.595Z,14.88
2022-10-14T15:44:00.086Z,14.87
2022-10-14T15:46:55.926Z,14.86
2022-10-14T15:49:48.937Z,14.82
2022-10-14T15:52:18.463Z,14.80
2022-10-14T15:57:41.280Z,14.77
2022-10-14T16:00:11.371Z,14.74
2022-10-14T16:03:05.411Z,14.72
2022-10-14T16:05:32.270Z,14.68
2022-10-14T16:08:02.138Z,14.66
2022-10-14T16:10:34.297Z,14.63
2022-10-14T16:13:01.300Z,14.60
2022-10-14T16:15:37.725Z,14.59
2022-10-14T16:18:04.714Z,14.55
2022-10-14T16:20:31.614Z,14.51
2022-10-14T16:22:58.757Z,14.49
2022-10-14T16:25:34.666Z,14.47
2022-10-14T16:28:01.703Z,14.47
2022-10-14T16:30:28.631Z,14.45
2022-10-14T16:32:55.548Z,14.40
2022-10-14T16:35:22.264Z,14.37
2022-10-14T16:37:49.067Z,14.34
2022-10-14T16:40:15.891Z,14.29
2022-10-14T16:42:42.527Z,14.26
2022-10-14T16:45:33.278Z,14.24
2022-10-14T16:48:01.304Z,14.21
2022-10-14T16:50:28.197Z,14.19
2022-10-14T16:53:18.433Z,14.16
2022-10-14T16:55:47.200Z,14.15
2022-10-14T16:58:16.920Z,14.09
2022-10-14T17:00:43.628Z,14.08
2022-10-14T17:03:12.635Z,14.06
2022-10-14T17:05:39.908Z,14.05
2022-10-14T17:08:07.625Z,14.03
2022-10-14T17:10:34.215Z,14.00
2022-10-14T17:13:02.056Z,13.99
2022-10-14T17:15:28.807Z,13.99
2022-10-14T17:17:55.412Z,13.97
2022-10-14T17:20:22.111Z,13.96
2022-10-14T17:22:49.969Z,13.94
2022-10-14T17:25:17.863Z,13.91
2022-10-14T17:27:44.719Z,13.89
2022-10-14T17:30:13.026Z,13.88
2022-10-14T17:32:39.939Z,13.86
2022-10-14T17:35:12.766Z,13.84
2022-10-14T17:37:42.529Z,13.83
2022-10-14T17:40:10.818Z,13.81
2022-10-14T17:42:37.469Z,13.79
2022-10-14T17:45:04.471Z,13.77
2022-10-14T17:47:31.178Z,13.75
2022-10-14T17:49:57.923Z,13.72
2022-10-14T17:52:24.781Z,13.70
2022-10-14T17:54:51.521Z,13.67
2022-10-14T17:57:18.430Z,13.66
2022-10-14T17:59:45.180Z,13.63
2022-10-14T18:02:17.786Z,13.62
2022-10-14T18:04:44.595Z,13.58
2022-10-14T18:07:12.086Z,13.57
2022-10-14T18:09:38.754Z,13.54
2022-10-14T18:12:09.936Z,13.54
2022-10-14T18:14:42.490Z,13.52
2022-10-14T18:17:12.609Z,13.49
2022-10-14T18:19:46.069Z,13.49
2022-10-14T18:22:16.293Z,13.48
2022-10-14T18:24:44.058Z,13.48
2022-10-14T18:27:11.658Z,13.47
2022-10-14T18:29:38.695Z,13.46
2022-10-14T18:32:07.761Z,13.43
2022-10-14T18:34:34.671Z,13.41
2022-10-14T18:37:01.536Z,13.39
2022-10-14T18:39:28.248Z,13.39
2022-10-14T18:41:55.000Z,13.36
2022-10-14T18:44:24.761Z,13.36
2022-10-14T18:46:51.481Z,13.36
2022-10-14T18:49:21.017Z,13.34
2022-10-14T18:51:47.787Z,13.33
2022-10-14T18:54:17.326Z,13.33
2022-10-14T18:56:45.019Z,13.30
2022-10-14T18:59:16.302Z,13.28
2022-10-14T19:01:43.138Z,13.25
2022-10-14T19:04:13.110Z,13.23
2022-10-14T19:06:40.859Z,13.22
2022-10-14T19:09:18.111Z,13.22
2022-10-14T19:11:46.823Z,13.21
2022-10-14T19:14:14.652Z,13.18
2022-10-14T19:16:41.723Z,13.17
2022-10-14T19:19:23.839Z,13.15
2022-10-14T19:21:54.499Z,13.15
2022-10-14T19:24:21.479Z,13.12
2022-10-14T19:26:48.920Z,13.09
2022-10-14T19:29:16.241Z,13.07
2022-10-14T19:31:44.191Z,13.05
2022-10-14T19:37:00.418Z,12.99
2022-10-14T19:39:28.513Z,12.97
